createdAt,value
2019-03-15T00:01:35.244Z,5.90
2019-03-15T00:04:03.684Z,5.90
2019-03-15T00:06:32.277Z,5.90
2019-03-15T00:09:00.705Z,5.90
2019-03-15T00:11:29.436Z,5.80
2019-03-15T00:13:58.242Z,5.90
2019-03-15T00:16:26.676Z,5.90
2019-03-15T00:18:55.096Z,6.00
2019-03-15T00:21:23.535Z,6.00
2019-03-15T00:23:51.953Z,6.00
2019-03-15T00:26:20.395Z,6.00
2019-03-15T00:28:48.826Z,6.10
2019-03-15T00:31:17.258Z,6.00
2019-03-15T00:33:47.893Z,6.10
2019-03-15T00:36:16.325Z,6.10
2019-03-15T00:38:44.765Z,6.10
2019-03-15T00:41:13.197Z,6.20
2019-03-15T00:43:41.641Z,6.30
2019-03-15T00:46:10.145Z,6.20
2019-03-15T00:48:38.561Z,6.20
2019-03-15T00:51:07.000Z,6.20
2019-03-15T00:53:36.370Z,6.20
2019-03-15T00:56:04.812Z,6.20
2019-03-15T00:58:33.229Z,6.20
2019-03-15T01:01:01.682Z,6.20
2019-03-15T01:03:30.170Z,6.20
2019-03-15T01:05:58.812Z,6.10
2019-03-15T01:08:27.563Z,6.00
2019-03-15T01:10:55.988Z,5.90
2019-03-15T01:13:24.452Z,5.90
2019-03-15T01:15:52.894Z,5.90
2019-03-15T01:18:21.305Z,5.80
2019-03-15T01:20:49.746Z,5.70
2019-03-15T01:23:18.173Z,5.70
2019-03-15T01:25:46.613Z,5.70
2019-03-15T01:28:15.045Z,5.80
2019-03-15T01:30:43.473Z,5.90
2019-03-15T01:33:11.914Z,5.90
2019-03-15T01:35:40.365Z,6.00
2019-03-15T01:38:08.833Z,6.00
2019-03-15T01:40:37.389Z,6.00
2019-03-15T01:43:05.911Z,6.00
2019-03-15T01:45:34.633Z,6.00
2019-03-15T01:48:03.155Z,6.00
2019-03-15T01:50:31.680Z,6.00
2019-03-15T01:53:00.111Z,6.00
2019-03-15T01:55:28.566Z,6.00
2019-03-15T01:57:57.094Z,6.00
2019-03-15T02:00:28.310Z,5.90
2019-03-15T02:02:56.736Z,5.90
2019-03-15T02:05:25.171Z,6.00
2019-03-15T02:07:53.605Z,6.00
2019-03-15T02:10:22.591Z,6.00
2019-03-15T02:12:51.145Z,5.90
2019-03-15T02:15:19.569Z,5.90
2019-03-15T02:17:48.029Z,5.90
2019-03-15T02:20:16.453Z,5.90
2019-03-15T02:22:45.083Z,5.90
2019-03-15T02:25:13.572Z,5.90
2019-03-15T02:27:43.240Z,5.80
2019-03-15T02:30:12.048Z,5.80
2019-03-15T02:32:40.483Z,5.70
2019-03-15T02:35:08.903Z,5.70
2019-03-15T02:37:37.327Z,5.60
2019-03-15T02:40:06.841Z,5.60
2019-03-15T02:42:35.286Z,5.60
2019-03-15T02:45:03.848Z,5.60
2019-03-15T02:47:32.284Z,5.60
2019-03-15T02:50:01.461Z,5.70
2019-03-15T02:52:30.724Z,5.70
2019-03-15T02:54:59.194Z,5.70
2019-03-15T02:57:27.632Z,5.70
2019-03-15T02:59:56.046Z,5.80
2019-03-15T03:02:24.484Z,5.70
2019-03-15T03:04:52.915Z,5.70
2019-03-15T03:07:21.361Z,5.80
2019-03-15T03:09:49.808Z,5.80
2019-03-15T03:12:18.327Z,5.80
2019-03-15T03:14:46.884Z,5.90
2019-03-15T03:17:15.310Z,5.90
2019-03-15T03:19:43.732Z,5.80
2019-03-15T03:22:12.160Z,5.80
2019-03-15T03:24:40.798Z,5.80
2019-03-15T03:27:09.221Z,5.90
2019-03-15T03:29:37.739Z,5.90
2019-03-15T03:32:06.311Z,5.90
2019-03-15T03:34:34.971Z,5.90
2019-03-15T03:37:03.615Z,6.00
2019-03-15T03:39:32.055Z,5.90
2019-03-15T03:42:00.749Z,5.90
2019-03-15T03:44:29.180Z,5.90
2019-03-15T03:46:57.612Z,5.80
2019-03-15T03:49:26.063Z,5.80
2019-03-15T03:51:54.515Z,5.80
2019-03-15T03:54:23.512Z,5.80
2019-03-15T03:56:52.079Z,5.80
2019-03-15T03:59:20.500Z,5.80
2019-03-15T04:01:49.279Z,5.90
2019-03-15T04:04:18.097Z,5.90
2019-03-15T04:06:46.525Z,5.90
2019-03-15T04:09:15.158Z,5.90
2019-03-15T04:11:54.807Z,6.00
2019-03-15T04:14:13.720Z,5.90
2019-03-15T04:16:42.145Z,5.90
2019-03-15T04:19:10.617Z,5.90
2019-03-15T04:21:39.057Z,5.90
2019-03-15T04:24:07.579Z,5.90
2019-03-15T04:26:36.126Z,5.90
2019-03-15T04:29:04.549Z,5.90
2019-03-15T04:31:34.924Z,6.00
2019-03-15T04:34:03.141Z,6.00
2019-03-15T04:36:31.578Z,5.90
2019-03-15T04:39:00.017Z,5.90
2019-03-15T04:41:28.450Z,5.90
2019-03-15T04:43:56.881Z,5.90
2019-03-15T04:46:25.309Z,6.00
2019-03-15T04:48:53.760Z,6.00
2019-03-15T04:51:22.187Z,6.00
2019-03-15T04:53:50.773Z,6.00
2019-03-15T04:56:19.202Z,6.10
2019-03-15T04:58:47.646Z,6.10
2019-03-15T05:01:16.067Z,6.20
2019-03-15T05:03:44.485Z,6.20
2019-03-15T05:06:12.929Z,6.20
2019-03-15T05:08:41.433Z,6.20
2019-03-15T05:11:09.872Z,6.20
2019-03-15T05:13:38.317Z,6.20
2019-03-15T05:16:06.803Z,6.20
2019-03-15T05:18:35.229Z,6.20
2019-03-15T05:21:03.853Z,6.20
2019-03-15T05:23:32.282Z,6.20
2019-03-15T05:26:00.744Z,6.20
2019-03-15T05:28:29.182Z,6.20
2019-03-15T05:30:57.614Z,6.10
2019-03-15T05:33:26.045Z,6.10
2019-03-15T05:35:54.487Z,6.10
2019-03-15T05:38:22.952Z,6.20
2019-03-15T05:40:52.377Z,6.20
2019-03-15T05:43:20.801Z,6.20
2019-03-15T05:45:49.228Z,6.20
2019-03-15T05:48:17.658Z,6.20
2019-03-15T05:50:46.114Z,6.20
2019-03-15T05:53:14.541Z,6.20
2019-03-15T05:55:42.984Z,6.20
2019-03-15T05:58:11.413Z,6.20
2019-03-15T06:00:39.847Z,6.20
2019-03-15T06:03:08.340Z,6.20
2019-03-15T06:05:36.775Z,6.20
2019-03-15T06:08:05.243Z,6.20
2019-03-15T06:10:33.713Z,6.30
2019-03-15T06:13:02.209Z,6.20
2019-03-15T06:15:30.874Z,6.20
2019-03-15T06:17:59.282Z,6.20
2019-03-15T06:20:27.709Z,6.10
2019-03-15T06:22:56.149Z,6.20
2019-03-15T06:25:24.586Z,6.20
2019-03-15T06:27:53.120Z,6.20
2019-03-15T06:30:21.588Z,6.20
2019-03-15T06:32:50.105Z,6.20
2019-03-15T06:35:18.548Z,6.20
2019-03-15T06:37:47.226Z,7.60
2019-03-15T06:40:15.655Z,7.80
2019-03-15T06:42:44.085Z,8.30
2019-03-15T06:45:15.133Z,8.80
2019-03-15T06:47:43.561Z,8.60
2019-03-15T06:50:13.712Z,9.60
2019-03-15T06:52:42.809Z,9.70
2019-03-15T06:55:13.868Z,9.30
2019-03-15T06:57:42.536Z,9.40
2019-03-15T07:00:15.854Z,9.40
2019-03-15T07:02:46.043Z,8.80
2019-03-15T07:05:15.384Z,9.60
2019-03-15T07:07:43.796Z,9.40
2019-03-15T07:10:12.802Z,8.20
2019-03-15T07:12:41.229Z,7.20
2019-03-15T07:15:14.178Z,6.70
2019-03-15T07:17:42.628Z,6.60
2019-03-15T07:20:16.116Z,6.60
2019-03-15T07:22:44.792Z,6.50
2019-03-15T07:25:13.867Z,6.60
2019-03-15T07:27:43.105Z,6.60
2019-03-15T07:30:15.735Z,6.60
2019-03-15T07:32:44.192Z,6.60
2019-03-15T07:35:12.906Z,6.60
2019-03-15T07:37:41.373Z,6.50
2019-03-15T07:40:11.321Z,6.50
2019-03-15T07:42:39.757Z,6.50
2019-03-15T07:45:09.930Z,6.50
2019-03-15T07:47:38.381Z,6.50
2019-03-15T07:50:09.865Z,6.60
2019-03-15T07:52:38.301Z,6.60
2019-03-15T07:55:09.077Z,6.60
2019-03-15T07:57:37.589Z,6.60
2019-03-15T08:00:16.574Z,6.60
2019-03-15T08:02:45.001Z,6.60
2019-03-15T08:05:13.489Z,6.60
2019-03-15T08:07:45.380Z,6.60
2019-03-15T08:10:12.846Z,6.60
2019-03-15T08:12:41.297Z,6.60
2019-03-15T08:15:11.478Z,6.70
2019-03-15T08:17:41.440Z,6.70
2019-03-15T08:20:11.911Z,6.80
2019-03-15T08:22:40.348Z,6.80
2019-03-15T08:25:11.043Z,6.80
2019-03-15T08:27:39.481Z,6.80
2019-03-15T08:30:14.271Z,6.90
2019-03-15T08:32:43.958Z,7.00
2019-03-15T08:35:13.568Z,6.90
2019-03-15T08:37:42.257Z,6.90
2019-03-15T08:40:12.439Z,7.00
2019-03-15T08:42:41.198Z,7.00
2019-03-15T08:45:14.745Z,6.90
2019-03-15T08:47:43.226Z,7.00
2019-03-15T08:50:15.315Z,7.00
2019-03-15T08:52:44.207Z,7.10
2019-03-15T08:55:14.120Z,7.20
2019-03-15T08:57:42.786Z,7.40
2019-03-15T09:00:18.893Z,7.20
2019-03-15T09:02:47.317Z,7.20
2019-03-15T09:05:16.482Z,7.30
2019-03-15T09:07:44.942Z,7.30
2019-03-15T09:10:23.367Z,7.30
2019-03-15T09:12:47.707Z,7.40
2019-03-15T09:15:16.403Z,7.30
2019-03-15T09:17:44.841Z,7.30
2019-03-15T09:20:14.825Z,7.30
2019-03-15T09:22:43.430Z,7.30
2019-03-15T09:25:20.384Z,7.30
2019-03-15T09:27:47.867Z,7.30
2019-03-15T09:30:24.781Z,7.40
2019-03-15T09:32:47.157Z,7.40
2019-03-15T09:35:15.576Z,7.40
2019-03-15T09:37:47.000Z,7.50
2019-03-15T09:40:17.941Z,7.50
2019-03-15T09:42:46.376Z,7.60
2019-03-15T09:45:17.580Z,7.70
2019-03-15T09:47:46.024Z,7.70
2019-03-15T09:50:26.429Z,7.70
2019-03-15T09:52:46.063Z,7.70
2019-03-15T09:55:15.529Z,7.70
2019-03-15T09:57:43.964Z,7.70
2019-03-15T10:00:16.701Z,7.70
2019-03-15T10:02:45.510Z,7.80
2019-03-15T10:05:14.215Z,7.90
2019-03-15T10:07:43.731Z,7.90
2019-03-15T10:10:18.814Z,7.90
2019-03-15T10:12:47.460Z,7.90
2019-03-15T10:15:17.141Z,7.80
2019-03-15T10:17:45.809Z,7.80
2019-03-15T10:20:15.170Z,7.80
2019-03-15T10:22:43.691Z,7.90
2019-03-15T10:25:16.780Z,7.90
2019-03-15T10:27:45.208Z,8.10
2019-03-15T10:30:16.317Z,7.90
2019-03-15T10:32:44.863Z,7.90
2019-03-15T10:35:13.274Z,7.90
2019-03-15T10:37:41.712Z,8.00
2019-03-15T10:40:21.601Z,8.00
2019-03-15T10:42:50.297Z,8.00
2019-03-15T10:45:18.727Z,7.80
2019-03-15T10:47:47.164Z,7.80
2019-03-15T10:50:17.907Z,7.90
2019-03-15T10:52:46.529Z,7.90
2019-03-15T10:55:16.777Z,7.80
2019-03-15T10:57:45.201Z,7.70
2019-03-15T11:00:16.553Z,7.80
2019-03-15T11:02:44.982Z,7.80
2019-03-15T11:05:13.529Z,7.80
2019-03-15T11:07:41.946Z,7.80
2019-03-15T11:10:34.401Z,7.80
2019-03-15T11:13:03.080Z,7.80
2019-03-15T11:15:31.513Z,7.80
2019-03-15T11:17:59.931Z,7.80
2019-03-15T11:20:28.369Z,7.70
2019-03-15T11:22:56.814Z,7.70
2019-03-15T11:25:25.341Z,7.70
2019-03-15T11:27:53.781Z,7.70
2019-03-15T11:30:22.592Z,7.60
2019-03-15T11:32:51.029Z,7.60
2019-03-15T11:35:21.256Z,7.60
2019-03-15T11:37:49.789Z,7.60
2019-03-15T11:40:19.611Z,7.50
2019-03-15T11:42:48.140Z,7.50
2019-03-15T11:45:16.576Z,7.40
2019-03-15T11:48:02.092Z,7.40
2019-03-15T11:50:17.209Z,7.30
2019-03-15T11:52:45.644Z,7.40
2019-03-15T11:55:14.064Z,7.40
2019-03-15T11:57:42.543Z,7.40
2019-03-15T12:00:15.608Z,7.30
2019-03-15T12:02:44.377Z,7.20
2019-03-15T12:05:13.350Z,7.30
2019-03-15T12:07:41.905Z,7.30
2019-03-15T12:10:14.120Z,7.30
2019-03-15T12:12:42.621Z,7.30
2019-03-15T12:15:13.741Z,7.30
2019-03-15T12:17:42.189Z,7.40
2019-03-15T12:20:11.942Z,7.40
2019-03-15T12:22:40.396Z,7.40
2019-03-15T12:25:10.803Z,7.40
2019-03-15T12:27:39.243Z,7.40
2019-03-15T12:30:12.830Z,7.50
2019-03-15T12:32:41.297Z,7.40
2019-03-15T12:35:14.191Z,7.50
2019-03-15T12:37:42.641Z,7.40
2019-03-15T12:40:12.818Z,7.40
2019-03-15T12:42:41.245Z,7.50
2019-03-15T12:45:11.149Z,7.50
2019-03-15T12:47:39.613Z,7.60
2019-03-15T12:50:10.245Z,7.60
2019-03-15T12:52:47.057Z,7.70
2019-03-15T12:55:10.761Z,7.70
2019-03-15T12:57:39.197Z,7.80
2019-03-15T13:00:10.692Z,7.80
2019-03-15T13:02:39.125Z,7.90
2019-03-15T13:05:07.549Z,8.00
2019-03-15T13:07:35.990Z,8.00
2019-03-15T13:10:21.656Z,8.00
2019-03-15T13:12:50.106Z,8.10
2019-03-15T13:15:18.585Z,8.10
2019-03-15T13:17:47.015Z,8.20
2019-03-15T13:20:16.576Z,8.30
2019-03-15T13:22:44.998Z,8.40
2019-03-15T13:25:14.277Z,8.50
2019-03-15T13:27:42.918Z,8.60
2019-03-15T13:30:17.574Z,8.70
2019-03-15T13:32:46.014Z,8.80
2019-03-15T13:35:14.961Z,9.00
2019-03-15T13:37:43.534Z,9.10
2019-03-15T13:40:14.116Z,9.20
2019-03-15T13:42:42.534Z,9.20
2019-03-15T13:45:13.012Z,9.30
2019-03-15T13:47:41.451Z,9.30
2019-03-15T13:50:12.194Z,9.40
2019-03-15T13:52:40.612Z,9.50
2019-03-15T13:55:09.594Z,9.70
2019-03-15T13:57:38.106Z,9.80
2019-03-15T14:00:16.287Z,9.80
2019-03-15T14:02:44.745Z,10.00
2019-03-15T14:05:13.208Z,10.10
2019-03-15T14:07:41.913Z,10.30
2019-03-15T14:10:17.396Z,10.30
2019-03-15T14:12:46.142Z,10.30
2019-03-15T14:15:16.250Z,10.30
2019-03-15T14:17:44.736Z,10.30
2019-03-15T14:20:13.776Z,10.30
2019-03-15T14:22:42.382Z,10.30
2019-03-15T14:25:15.978Z,10.40
2019-03-15T14:27:44.403Z,10.30
2019-03-15T14:30:13.921Z,10.40
2019-03-15T14:32:42.380Z,10.60
2019-03-15T14:35:11.256Z,10.60
2019-03-15T14:37:39.744Z,10.60
2019-03-15T14:40:12.242Z,10.50
2019-03-15T14:42:41.153Z,10.50
2019-03-15T14:45:14.153Z,10.40
2019-03-15T14:47:42.702Z,10.60
2019-03-15T14:50:16.047Z,10.70
2019-03-15T14:52:44.481Z,10.70
2019-03-15T14:55:17.549Z,10.90
2019-03-15T14:57:52.686Z,10.80
2019-03-15T15:00:20.253Z,10.70
2019-03-15T15:02:49.049Z,10.40
2019-03-15T15:05:17.511Z,10.20
2019-03-15T15:07:45.951Z,10.20
2019-03-15T15:10:15.976Z,10.20
2019-03-15T15:12:44.451Z,10.20
2019-03-15T15:15:21.552Z,10.20
2019-03-15T15:17:50.047Z,10.10
2019-03-15T15:20:18.879Z,10.10
2019-03-15T15:22:47.379Z,10.00
2019-03-15T15:25:17.812Z,9.90
2019-03-15T15:27:47.785Z,9.80
2019-03-15T15:30:17.069Z,9.80
2019-03-15T15:32:45.783Z,9.80
2019-03-15T15:35:15.246Z,9.80
2019-03-15T15:37:43.709Z,9.70
2019-03-15T15:40:19.188Z,9.60
2019-03-15T15:42:47.649Z,9.60
2019-03-15T15:45:17.617Z,9.60
2019-03-15T15:47:46.143Z,9.60
2019-03-15T15:50:16.416Z,9.60
2019-03-15T15:52:44.926Z,9.50
2019-03-15T15:55:16.853Z,9.50
2019-03-15T15:57:45.299Z,9.40
2019-03-15T16:00:18.539Z,9.40
2019-03-15T16:02:47.037Z,9.30
2019-03-15T16:05:15.900Z,9.30
2019-03-15T16:07:44.413Z,9.30
2019-03-15T16:10:17.618Z,9.20
2019-03-15T16:12:46.262Z,9.10
2019-03-15T16:15:19.280Z,9.10
2019-03-15T16:17:48.024Z,9.10
2019-03-15T16:20:16.436Z,9.00
2019-03-15T16:22:44.877Z,9.00
2019-03-15T16:25:13.871Z,9.00
2019-03-15T16:27:42.637Z,9.00
2019-03-15T16:30:16.299Z,8.90
2019-03-15T16:32:44.956Z,8.90
2019-03-15T16:35:14.256Z,8.90
2019-03-15T16:37:42.740Z,8.90
2019-03-15T16:40:13.417Z,8.80
2019-03-15T16:42:41.909Z,8.70
2019-03-15T16:45:21.843Z,8.70
2019-03-15T16:47:50.286Z,8.60
2019-03-15T16:50:18.757Z,8.60
2019-03-15T16:52:47.202Z,8.60
2019-03-15T16:55:15.665Z,8.60
2019-03-15T16:57:44.393Z,8.60
2019-03-15T17:00:17.248Z,8.60
2019-03-15T17:02:45.666Z,8.50
2019-03-15T17:05:14.745Z,8.50
2019-03-15T17:07:43.447Z,8.50
2019-03-15T17:10:13.992Z,8.40
2019-03-15T17:12:42.423Z,8.40
2019-03-15T17:15:16.505Z,8.40
2019-03-15T17:17:45.037Z,8.40
2019-03-15T17:20:13.573Z,8.30
2019-03-15T17:22:41.994Z,8.30
2019-03-15T17:25:13.582Z,8.30
2019-03-15T17:27:43.452Z,8.30
2019-03-15T17:30:14.214Z,8.20
2019-03-15T17:32:42.697Z,8.20
2019-03-15T17:35:12.937Z,8.80
2019-03-15T17:37:41.788Z,8.40
2019-03-15T17:40:14.548Z,8.30
2019-03-15T17:42:43.028Z,8.20
2019-03-15T17:45:11.872Z,8.10
2019-03-15T17:47:40.317Z,8.10
2019-03-15T17:50:11.709Z,8.10
2019-03-15T17:52:40.161Z,8.20
2019-03-15T17:55:09.052Z,8.20
2019-03-15T17:57:37.522Z,8.10
2019-03-15T18:00:16.220Z,8.10
2019-03-15T18:02:44.662Z,8.00
2019-03-15T18:05:13.657Z,8.00
2019-03-15T18:07:42.134Z,7.90
2019-03-15T18:10:10.827Z,8.00
2019-03-15T18:12:39.350Z,7.90
2019-03-15T18:15:09.807Z,7.90
2019-03-15T18:17:38.352Z,7.90
2019-03-15T18:20:08.788Z,7.80
2019-03-15T18:22:37.367Z,7.80
2019-03-15T18:25:08.076Z,7.80
2019-03-15T18:27:36.549Z,7.80
2019-03-15T18:30:13.355Z,7.80
2019-03-15T18:32:41.785Z,7.80
2019-03-15T18:35:11.375Z,7.70
2019-03-15T18:37:39.914Z,7.70
2019-03-15T18:40:11.538Z,7.80
2019-03-15T18:42:40.514Z,7.80
2019-03-15T18:45:15.792Z,7.80
2019-03-15T18:47:44.233Z,7.70
2019-03-15T18:50:21.547Z,7.70
2019-03-15T18:52:50.044Z,7.70
2019-03-15T18:55:18.480Z,7.70
2019-03-15T18:57:46.926Z,7.70
2019-03-15T19:00:19.995Z,7.70
2019-03-15T19:02:52.475Z,7.70
2019-03-15T19:05:39.386Z,7.70
2019-03-15T19:08:07.883Z,7.70
2019-03-15T19:10:38.802Z,7.70
2019-03-15T19:13:07.384Z,7.70
2019-03-15T19:15:35.916Z,7.70
2019-03-15T19:18:04.367Z,7.60
2019-03-15T19:20:35.754Z,7.70
2019-03-15T19:23:04.584Z,7.60
2019-03-15T19:25:33.017Z,7.60
2019-03-15T19:28:01.534Z,7.60
2019-03-15T19:30:30.153Z,7.60
2019-03-15T19:32:58.721Z,7.60
2019-03-15T19:35:27.181Z,7.60
2019-03-15T19:37:55.626Z,7.60
2019-03-15T19:40:24.062Z,7.60
2019-03-15T19:42:52.519Z,7.60
2019-03-15T19:45:21.275Z,7.60
2019-03-15T19:47:49.726Z,7.60
2019-03-15T19:50:19.817Z,7.50
2019-03-15T19:52:48.243Z,7.50
2019-03-15T19:55:17.250Z,7.60
2019-03-15T19:57:46.147Z,7.50
2019-03-15T20:00:19.823Z,7.50
2019-03-15T20:02:48.310Z,7.50
2019-03-15T20:05:16.927Z,7.40
2019-03-15T20:07:45.566Z,7.40
2019-03-15T20:10:17.123Z,7.40
2019-03-15T20:12:45.928Z,7.50
2019-03-15T20:15:17.121Z,7.40
2019-03-15T20:17:45.660Z,7.40
2019-03-15T20:20:15.554Z,7.40
2019-03-15T20:22:44.078Z,7.40
2019-03-15T20:25:15.745Z,7.40
2019-03-15T20:27:44.238Z,7.40
2019-03-15T20:30:21.572Z,7.40
2019-03-15T20:32:47.228Z,7.40
2019-03-15T20:35:15.696Z,7.40
2019-03-15T20:37:47.057Z,7.40
2019-03-15T20:40:15.725Z,7.40
2019-03-15T20:42:44.197Z,7.90
2019-03-15T20:45:20.758Z,7.30
2019-03-15T20:47:49.261Z,7.30
2019-03-15T20:50:17.756Z,7.20
2019-03-15T20:52:46.317Z,7.20
2019-03-15T20:55:14.946Z,7.20
2019-03-15T20:57:43.429Z,7.30
2019-03-15T21:00:21.754Z,7.20
2019-03-15T21:02:50.403Z,7.20
2019-03-15T21:05:19.459Z,7.20
2019-03-15T21:07:47.949Z,7.20
2019-03-15T21:10:17.755Z,7.10
2019-03-15T21:12:49.312Z,7.10
2019-03-15T21:15:17.779Z,7.10
2019-03-15T21:17:46.218Z,7.10
2019-03-15T21:20:16.871Z,7.10
2019-03-15T21:22:45.379Z,7.10
2019-03-15T21:25:13.796Z,7.10
2019-03-15T21:27:53.025Z,7.10
2019-03-15T21:30:26.260Z,7.10
2019-03-15T21:32:54.761Z,7.10
2019-03-15T21:35:23.234Z,7.10
2019-03-15T21:37:51.798Z,7.10
2019-03-15T21:40:21.658Z,7.10
2019-03-15T21:42:50.214Z,7.10
2019-03-15T21:45:18.632Z,7.20
2019-03-15T21:47:47.074Z,7.20
2019-03-15T21:50:18.758Z,7.20
2019-03-15T21:52:47.214Z,7.10
2019-03-15T21:55:15.654Z,7.10
2019-03-15T21:57:44.119Z,7.10
2019-03-15T22:00:20.201Z,7.20
2019-03-15T22:02:48.682Z,7.20
2019-03-15T22:05:17.245Z,7.20
2019-03-15T22:07:45.686Z,7.20
2019-03-15T22:10:14.961Z,7.20
2019-03-15T22:12:43.672Z,7.20
2019-03-15T22:15:13.234Z,7.20
2019-03-15T22:17:41.723Z,7.80
2019-03-15T22:20:19.362Z,8.40
2019-03-15T22:22:47.904Z,8.50
2019-03-15T22:25:16.336Z,8.50
2019-03-15T22:27:44.782Z,8.40
2019-03-15T22:30:14.364Z,8.40
2019-03-15T22:32:43.064Z,8.30
2019-03-15T22:35:12.037Z,8.50
2019-03-15T22:37:40.471Z,8.20
2019-03-15T22:40:10.570Z,8.20
2019-03-15T22:42:39.009Z,8.50
2019-03-15T22:45:09.882Z,8.60
2019-03-15T22:47:38.328Z,8.60
2019-03-15T22:50:09.297Z,8.30
2019-03-15T22:52:37.754Z,8.40
2019-03-15T22:55:08.515Z,8.60
2019-03-15T22:57:36.962Z,8.00
2019-03-15T23:00:16.365Z,7.40
2019-03-15T23:02:44.946Z,7.20
2019-03-15T23:05:14.350Z,7.10
2019-03-15T23:07:42.911Z,7.10
2019-03-15T23:10:11.989Z,7.10
2019-03-15T23:12:40.459Z,7.10
2019-03-15T23:15:13.120Z,7.10
2019-03-15T23:17:41.569Z,7.10
2019-03-15T23:20:12.322Z,7.00
2019-03-15T23:22:40.782Z,7.10
2019-03-15T23:25:09.643Z,7.00
2019-03-15T23:27:38.158Z,7.00
2019-03-15T23:30:17.266Z,7.00
2019-03-15T23:32:45.717Z,7.00
2019-03-15T23:35:14.134Z,6.90
2019-03-15T23:37:42.580Z,7.00
2019-03-15T23:40:12.840Z,7.00
2019-03-15T23:42:41.555Z,6.90
2019-03-15T23:45:11.150Z,6.90
2019-03-15T23:47:39.588Z,6.90
2019-03-15T23:50:13.162Z,7.00
2019-03-15T23:52:41.598Z,6.90
2019-03-15T23:55:10.192Z,6.90
2019-03-15T23:57:38.666Z,6.80
